createdAt,value
2023-03-24T00:00:41.044Z,6.58
2023-03-24T00:03:10.815Z,6.56
2023-03-24T00:05:38.724Z,6.63
2023-03-24T00:08:06.676Z,6.67
2023-03-24T00:10:37.063Z,6.73
2023-03-24T00:13:06.027Z,6.71
2023-03-24T00:15:34.413Z,6.70
2023-03-24T00:18:02.256Z,6.69
2023-03-24T00:20:32.986Z,6.52
2023-03-24T00:23:00.809Z,6.73
2023-03-24T00:25:33.828Z,6.71
2023-03-24T00:28:01.803Z,6.70
2023-03-24T00:30:31.597Z,6.73
2023-03-24T00:33:02.005Z,6.66
2023-03-24T00:35:31.173Z,6.64
2023-03-24T00:37:58.900Z,6.56
2023-03-24T00:40:28.079Z,6.69
2023-03-24T00:42:55.803Z,6.72
2023-03-24T00:45:25.447Z,6.73
2023-03-24T00:47:54.916Z,6.61
2023-03-24T00:50:27.019Z,6.63
2023-03-24T00:53:02.129Z,6.57
2023-03-24T00:55:29.865Z,6.58
2023-03-24T00:57:57.719Z,6.58
2023-03-24T01:00:27.468Z,6.61
2023-03-24T01:02:59.279Z,6.58
2023-03-24T01:05:30.216Z,6.58
2023-03-24T01:07:58.684Z,6.57
2023-03-24T01:10:28.414Z,6.56
2023-03-24T01:12:59.192Z,6.52
2023-03-24T01:15:29.628Z,6.56
2023-03-24T01:17:58.085Z,6.45
2023-03-24T01:20:26.575Z,6.48
2023-03-24T01:22:54.729Z,6.55
2023-03-24T01:25:24.263Z,6.56
2023-03-24T01:27:54.042Z,6.61
2023-03-24T01:30:23.884Z,6.62
2023-03-24T01:32:53.135Z,6.58
2023-03-24T01:35:22.460Z,6.61
2023-03-24T01:37:50.876Z,6.58
2023-03-24T01:40:21.488Z,6.60
2023-03-24T01:42:49.444Z,6.60
2023-03-24T01:45:56.729Z,6.63
2023-03-24T01:48:27.946Z,6.57
2023-03-24T01:51:00.563Z,6.58
2023-03-24T01:53:29.757Z,6.53
2023-03-24T01:55:57.569Z,6.52
2023-03-24T01:58:29.257Z,6.47
2023-03-24T02:00:59.038Z,6.44
2023-03-24T02:03:30.209Z,6.36
2023-03-24T02:05:58.697Z,6.45
2023-03-24T02:08:32.832Z,6.48
2023-03-24T02:11:03.001Z,6.42
2023-03-24T02:13:30.747Z,6.47
2023-03-24T02:16:10.224Z,6.43
2023-03-24T02:18:47.699Z,6.41
2023-03-24T02:21:48.118Z,6.38
2023-03-24T02:24:53.036Z,6.36
2023-03-24T02:27:39.055Z,6.32
2023-03-24T02:30:27.625Z,6.30
2023-03-24T02:33:31.800Z,6.15
2023-03-24T02:36:34.419Z,5.99
2023-03-24T02:39:52.933Z,5.89
2023-03-24T02:42:36.511Z,5.68
2023-03-24T02:45:17.953Z,5.77
2023-03-24T02:47:54.154Z,5.83
2023-03-24T02:50:30.678Z,5.92
2023-03-24T02:53:07.468Z,5.92
2023-03-24T02:55:41.710Z,5.98
2023-03-24T02:58:16.876Z,6.10
2023-03-24T03:00:48.553Z,6.07
2023-03-24T03:03:21.972Z,6.10
2023-03-24T03:05:55.072Z,6.19
2023-03-24T03:08:24.408Z,6.17
2023-03-24T03:10:55.689Z,6.16
2023-03-24T03:13:31.941Z,6.19
2023-03-24T03:16:05.704Z,6.17
2023-03-24T03:18:40.439Z,6.24
2023-03-24T03:21:13.330Z,6.24
2023-03-24T03:23:44.448Z,6.22
2023-03-24T03:26:16.721Z,6.25
2023-03-24T03:28:51.349Z,6.24
2023-03-24T03:31:23.853Z,6.19
2023-03-24T03:33:59.422Z,6.18
2023-03-24T03:36:32.077Z,6.16
2023-03-24T03:39:08.186Z,6.16
2023-03-24T03:41:38.639Z,6.16
2023-03-24T03:44:06.911Z,6.08
2023-03-24T03:46:36.629Z,6.12
2023-03-24T03:49:05.755Z,6.14
2023-03-24T03:51:34.360Z,6.19
2023-03-24T03:54:04.900Z,6.10
2023-03-24T03:56:36.469Z,6.14
2023-03-24T03:59:06.250Z,6.16
2023-03-24T04:01:37.604Z,6.12
2023-03-24T04:04:38.106Z,6.16
2023-03-24T04:07:13.860Z,6.12
2023-03-24T04:09:56.370Z,6.11
2023-03-24T04:12:50.459Z,6.15
2023-03-24T04:15:36.025Z,6.10
2023-03-24T04:18:29.437Z,6.10
2023-03-24T04:21:15.624Z,6.09
2023-03-24T04:23:54.392Z,5.99
2023-03-24T04:26:28.764Z,6.01
2023-03-24T04:29:09.383Z,6.02
2023-03-24T04:31:44.369Z,6.00
2023-03-24T04:34:20.782Z,6.00
2023-03-24T04:36:54.433Z,6.00
2023-03-24T04:39:28.287Z,5.99
2023-03-24T04:41:58.698Z,6.04
2023-03-24T04:44:28.021Z,6.01
2023-03-24T04:47:00.435Z,5.99
2023-03-24T04:49:28.291Z,5.97
2023-03-24T04:51:56.772Z,5.99
2023-03-24T04:54:24.888Z,5.95
2023-03-24T04:56:54.144Z,5.85
2023-03-24T04:59:22.112Z,5.92
2023-03-24T05:01:50.868Z,5.93
2023-03-24T05:04:22.100Z,6.00
2023-03-24T05:06:50.095Z,5.95
2023-03-24T05:09:21.360Z,5.95
2023-03-24T05:11:49.789Z,5.96
2023-03-24T05:14:18.250Z,5.97
2023-03-24T05:16:46.217Z,5.99
2023-03-24T05:19:14.252Z,5.98
2023-03-24T05:21:43.409Z,6.01
2023-03-24T05:24:12.453Z,6.08
2023-03-24T05:26:40.179Z,6.12
2023-03-24T05:29:08.043Z,6.17
2023-03-24T05:31:35.803Z,6.29
2023-03-24T05:34:03.647Z,6.36
2023-03-24T05:36:31.384Z,6.34
2023-03-24T05:39:00.927Z,6.34
2023-03-24T05:41:28.703Z,6.38
2023-03-24T05:43:56.563Z,6.37
2023-03-24T05:46:26.424Z,6.38
2023-03-24T05:48:54.568Z,6.34
2023-03-24T05:51:22.671Z,6.34
2023-03-24T05:53:52.099Z,6.43
2023-03-24T05:56:21.438Z,6.43
2023-03-24T05:58:49.260Z,6.49
2023-03-24T06:01:18.301Z,6.56
2023-03-24T06:03:46.251Z,6.57
2023-03-24T06:06:16.825Z,6.60
2023-03-24T06:08:46.015Z,6.74
2023-03-24T06:11:14.221Z,6.82
2023-03-24T06:13:44.731Z,6.91
2023-03-24T06:16:12.924Z,6.92
2023-03-24T06:18:42.751Z,7.00
2023-03-24T06:21:10.746Z,7.03
2023-03-24T06:23:38.986Z,7.09
2023-03-24T06:26:10.681Z,7.20
2023-03-24T06:28:39.821Z,7.28
2023-03-24T06:31:18.603Z,7.29
2023-03-24T06:33:46.770Z,7.33
2023-03-24T06:36:15.725Z,7.29
2023-03-24T06:38:45.768Z,7.27
2023-03-24T06:41:13.894Z,7.13
2023-03-24T06:43:41.627Z,7.13
2023-03-24T06:46:11.258Z,7.21
2023-03-24T06:48:39.754Z,7.21
2023-03-24T06:51:08.323Z,7.09
2023-03-24T06:53:37.797Z,7.13
2023-03-24T06:56:06.272Z,7.18
2023-03-24T06:58:35.063Z,7.33
2023-03-24T07:01:03.122Z,7.54
2023-03-24T07:03:33.234Z,7.77
2023-03-24T07:06:01.415Z,7.77
2023-03-24T07:08:37.209Z,7.62
2023-03-24T07:11:08.712Z,7.85
2023-03-24T07:13:38.178Z,7.92
2023-03-24T07:16:06.993Z,7.96
2023-03-24T07:18:37.152Z,7.94
2023-03-24T07:21:05.236Z,7.81
2023-03-24T07:23:33.192Z,7.76
2023-03-24T07:26:01.206Z,7.70
2023-03-24T07:28:28.972Z,7.69
2023-03-24T07:30:56.971Z,7.82
2023-03-24T07:33:25.291Z,7.81
2023-03-24T07:35:57.413Z,7.66
2023-03-24T07:38:25.531Z,7.64
2023-03-24T07:40:53.404Z,7.53
2023-03-24T07:43:21.908Z,7.49
2023-03-24T07:45:49.966Z,7.52
2023-03-24T07:48:18.035Z,7.59
2023-03-24T07:50:46.080Z,7.66
2023-03-24T07:53:19.983Z,7.81
2023-03-24T07:55:48.441Z,7.86
2023-03-24T07:58:16.864Z,8.01
2023-03-24T08:00:44.985Z,8.04
2023-03-24T08:03:15.442Z,8.17
2023-03-24T08:05:44.180Z,8.38
2023-03-24T08:08:12.060Z,8.38
2023-03-24T08:10:42.675Z,8.27
2023-03-24T08:13:10.513Z,8.22
2023-03-24T08:15:39.040Z,8.29
2023-03-24T08:18:07.060Z,8.23
2023-03-24T08:20:35.183Z,8.04
2023-03-24T08:23:04.824Z,8.21
2023-03-24T08:25:33.176Z,8.31
2023-03-24T08:28:02.370Z,8.50
2023-03-24T08:30:30.635Z,8.48
2023-03-24T08:33:00.967Z,8.41
2023-03-24T08:35:31.550Z,8.47
2023-03-24T08:38:01.192Z,8.42
2023-03-24T08:40:31.846Z,8.55
2023-03-24T08:43:03.306Z,8.64
2023-03-24T08:45:33.649Z,8.73
2023-03-24T08:48:06.144Z,8.75
2023-03-24T08:50:38.192Z,8.77
2023-03-24T08:53:06.097Z,8.74
2023-03-24T08:55:34.599Z,8.72
2023-03-24T08:58:03.838Z,8.74
2023-03-24T09:00:31.660Z,8.73
2023-03-24T09:03:01.344Z,8.76
2023-03-24T09:05:43.569Z,8.80
2023-03-24T09:08:12.526Z,8.73
2023-03-24T09:10:42.772Z,8.75
2023-03-24T09:13:11.898Z,8.85
2023-03-24T09:15:40.089Z,8.90
2023-03-24T09:18:10.489Z,9.06
2023-03-24T09:20:38.271Z,9.14
2023-03-24T09:23:06.530Z,9.15
2023-03-24T09:25:34.346Z,9.10
2023-03-24T09:28:02.510Z,9.21
2023-03-24T09:30:34.004Z,9.46
2023-03-24T09:33:02.949Z,9.59
2023-03-24T09:35:31.275Z,9.75
2023-03-24T09:37:59.324Z,9.91
2023-03-24T09:40:29.268Z,10.14
2023-03-24T09:43:01.172Z,10.28
2023-03-24T09:45:35.038Z,10.18
2023-03-24T09:48:09.966Z,10.10
2023-03-24T09:50:43.129Z,10.11
2023-03-24T09:53:21.398Z,10.16
2023-03-24T09:55:50.470Z,10.07
2023-03-24T09:58:20.018Z,10.23
2023-03-24T10:00:49.505Z,10.40
2023-03-24T10:03:21.700Z,10.70
2023-03-24T10:05:54.282Z,10.88
2023-03-24T10:08:30.694Z,11.07
2023-03-24T10:11:04.844Z,11.12
2023-03-24T10:13:45.083Z,11.04
2023-03-24T10:16:23.428Z,10.96
2023-03-24T10:19:00.162Z,10.57
2023-03-24T10:21:31.726Z,10.24
2023-03-24T10:24:07.798Z,10.30
2023-03-24T10:26:43.636Z,10.41
2023-03-24T10:29:22.925Z,10.32
2023-03-24T10:31:55.478Z,10.10
2023-03-24T10:34:27.428Z,10.13
2023-03-24T10:36:57.678Z,9.97
2023-03-24T10:39:38.057Z,9.93
2023-03-24T10:42:16.898Z,9.79
2023-03-24T10:44:45.277Z,9.73
2023-03-24T10:47:15.887Z,9.85
2023-03-24T10:49:54.894Z,9.81
2023-03-24T10:52:24.568Z,9.77
2023-03-24T10:54:57.545Z,9.74
2023-03-24T10:57:27.051Z,9.83
2023-03-24T10:59:57.851Z,9.90
2023-03-24T11:02:30.623Z,9.70
2023-03-24T11:05:00.208Z,9.51
2023-03-24T11:07:33.596Z,9.42
2023-03-24T11:10:06.397Z,9.40
2023-03-24T11:12:36.715Z,9.28
2023-03-24T11:15:21.218Z,9.23
2023-03-24T11:17:57.277Z,9.28
2023-03-24T11:20:33.066Z,9.34
2023-03-24T11:23:03.761Z,9.28
2023-03-24T11:25:34.546Z,9.32
2023-03-24T11:28:05.206Z,9.22
2023-03-24T11:30:37.135Z,9.38
2023-03-24T11:33:07.274Z,9.36
2023-03-24T11:35:41.835Z,9.39
2023-03-24T11:38:17.496Z,9.69
2023-03-24T11:40:54.807Z,9.83
2023-03-24T11:43:23.121Z,9.85
2023-03-24T11:46:00.067Z,10.15
2023-03-24T11:48:40.482Z,10.19
2023-03-24T11:51:12.508Z,10.26
2023-03-24T11:53:45.671Z,10.21
2023-03-24T11:56:19.046Z,10.04
2023-03-24T11:58:50.964Z,9.83
2023-03-24T12:01:28.520Z,9.34
2023-03-24T12:04:16.362Z,8.94
2023-03-24T12:06:56.808Z,8.71
2023-03-24T12:09:32.484Z,8.64
2023-03-24T12:12:17.675Z,8.50
2023-03-24T12:15:20.664Z,8.57
2023-03-24T12:18:05.852Z,8.43
2023-03-24T12:20:38.879Z,8.27
2023-03-24T12:23:14.129Z,8.18
2023-03-24T12:25:58.342Z,8.05
2023-03-24T12:28:52.739Z,8.07
2023-03-24T12:31:59.929Z,7.78
2023-03-24T12:34:59.379Z,7.57
2023-03-24T12:37:41.237Z,7.68
2023-03-24T12:40:35.899Z,7.52
2023-03-24T12:43:16.268Z,7.47
2023-03-24T12:45:49.482Z,7.44
2023-03-24T12:48:42.052Z,7.40
2023-03-24T12:51:22.189Z,7.28
2023-03-24T12:54:06.453Z,7.31
2023-03-24T12:56:39.027Z,7.18
2023-03-24T12:59:14.620Z,7.11
2023-03-24T13:01:44.641Z,7.05
2023-03-24T13:04:17.036Z,7.08
2023-03-24T13:06:49.907Z,6.93
2023-03-24T13:09:33.384Z,6.83
2023-03-24T13:12:06.843Z,6.80
2023-03-24T13:14:50.732Z,6.67
2023-03-24T13:17:22.872Z,6.53
2023-03-24T13:19:52.721Z,6.50
2023-03-24T13:22:24.256Z,6.44
2023-03-24T13:24:56.283Z,6.33
2023-03-24T13:27:25.830Z,6.33
2023-03-24T13:30:09.322Z,6.30
2023-03-24T13:32:42.252Z,6.27
2023-03-24T13:35:19.459Z,6.26
2023-03-24T13:37:51.868Z,6.17
2023-03-24T13:40:26.462Z,6.18
2023-03-24T13:42:57.040Z,6.17
2023-03-24T13:45:32.627Z,6.09
2023-03-24T13:48:19.303Z,6.10
2023-03-24T13:50:59.012Z,5.99
2023-03-24T13:53:37.855Z,6.07
2023-03-24T13:56:10.020Z,6.04
2023-03-24T13:59:11.340Z,5.94
2023-03-24T14:01:40.886Z,5.87
2023-03-24T14:04:29.740Z,5.85
2023-03-24T14:06:59.757Z,5.80
2023-03-24T14:09:29.380Z,5.74
2023-03-24T14:12:19.557Z,5.69
2023-03-24T14:15:17.810Z,5.69
2023-03-24T14:17:48.161Z,5.66
2023-03-24T14:20:36.132Z,5.62
2023-03-24T14:23:05.273Z,5.67
2023-03-24T14:25:34.315Z,5.65
2023-03-24T14:28:20.962Z,5.59
2023-03-24T14:31:04.249Z,5.58
2023-03-24T14:33:32.273Z,5.59
2023-03-24T14:36:06.351Z,5.69
2023-03-24T14:38:37.841Z,5.74
2023-03-24T14:41:13.971Z,5.79
2023-03-24T14:43:58.416Z,5.86
2023-03-24T14:46:44.760Z,5.81
2023-03-24T14:49:24.674Z,5.83
2023-03-24T14:52:04.881Z,5.82
2023-03-24T14:54:39.557Z,5.87
2023-03-24T14:57:08.810Z,5.78
2023-03-24T14:59:46.700Z,5.69
2023-03-24T15:02:35.891Z,5.69
2023-03-24T15:05:20.512Z,5.60
2023-03-24T15:08:04.673Z,5.66
2023-03-24T15:10:40.568Z,5.58
2023-03-24T15:13:29.309Z,5.52
2023-03-24T15:15:59.969Z,5.55
2023-03-24T15:18:28.449Z,5.59
2023-03-24T15:20:56.281Z,5.61
2023-03-24T15:23:28.140Z,5.55
2023-03-24T15:25:56.627Z,5.63
2023-03-24T15:28:27.836Z,5.56
2023-03-24T15:30:59.722Z,5.48
2023-03-24T15:33:30.912Z,5.46
2023-03-24T15:36:00.940Z,5.44
2023-03-24T15:38:30.763Z,5.46
2023-03-24T15:41:02.143Z,5.33
2023-03-24T15:43:31.144Z,5.35
2023-03-24T15:46:11.748Z,5.37
2023-03-24T15:49:06.465Z,5.36
2023-03-24T15:51:50.973Z,5.40
2023-03-24T15:54:24.142Z,5.31
2023-03-24T15:57:13.822Z,5.32
2023-03-24T15:59:46.863Z,5.31
2023-03-24T16:02:25.581Z,5.34
2023-03-24T16:05:10.688Z,5.29
2023-03-24T16:07:40.828Z,5.33
2023-03-24T16:10:29.057Z,5.18
2023-03-24T16:12:56.876Z,5.36
2023-03-24T16:15:24.749Z,5.34
2023-03-24T16:17:54.140Z,5.32
2023-03-24T16:20:23.352Z,5.37
2023-03-24T16:22:51.220Z,5.33
2023-03-24T16:25:19.105Z,5.31
2023-03-24T16:27:46.898Z,5.35
2023-03-24T16:30:21.773Z,5.22
2023-03-24T16:32:49.613Z,5.22
2023-03-24T16:35:18.857Z,5.15
2023-03-24T16:37:47.098Z,5.14
2023-03-24T16:40:41.639Z,5.17
2023-03-24T16:43:09.627Z,5.23
2023-03-24T16:45:37.389Z,5.24
2023-03-24T16:48:05.727Z,5.19
2023-03-24T16:50:37.584Z,5.24
2023-03-24T16:53:05.728Z,5.17
2023-03-24T16:55:33.658Z,5.24
2023-03-24T16:58:01.468Z,5.29
2023-03-24T17:00:30.037Z,5.22
2023-03-24T17:02:59.711Z,5.27
2023-03-24T17:05:30.205Z,5.29
2023-03-24T17:07:59.593Z,5.28
2023-03-24T17:10:28.475Z,5.33
2023-03-24T17:12:57.738Z,5.37
2023-03-24T17:15:27.583Z,5.46
2023-03-24T17:17:56.176Z,5.48
2023-03-24T17:20:26.520Z,5.54
2023-03-24T17:22:56.935Z,5.54
2023-03-24T17:25:29.263Z,5.62
2023-03-24T17:27:58.180Z,5.68
2023-03-24T17:30:27.957Z,5.77
2023-03-24T17:32:55.770Z,5.83
2023-03-24T17:35:25.101Z,5.95
2023-03-24T17:37:52.873Z,5.97
2023-03-24T17:40:21.789Z,5.93
2023-03-24T17:42:51.033Z,6.03
2023-03-24T17:45:20.345Z,6.09
2023-03-24T17:47:48.223Z,6.13
2023-03-24T17:50:15.968Z,6.21
2023-03-24T17:52:46.751Z,6.22
2023-03-24T17:55:16.392Z,6.27
2023-03-24T17:57:44.684Z,6.19
2023-03-24T18:00:16.375Z,6.24
2023-03-24T18:02:44.993Z,6.32
2023-03-24T18:05:13.523Z,6.27
2023-03-24T18:07:41.634Z,6.30
2023-03-24T18:10:10.619Z,6.30
2023-03-24T18:12:38.484Z,6.36
2023-03-24T18:15:07.741Z,6.37
2023-03-24T18:17:37.251Z,6.37
2023-03-24T18:20:10.845Z,6.39
2023-03-24T18:22:40.884Z,6.41
2023-03-24T18:25:10.160Z,6.46
2023-03-24T18:27:38.923Z,6.48
2023-03-24T18:30:09.314Z,6.55
2023-03-24T18:32:39.280Z,6.57
2023-03-24T18:35:08.832Z,6.56
2023-03-24T18:37:36.922Z,6.60
2023-03-24T18:40:08.555Z,6.62
2023-03-24T18:42:37.068Z,6.65
2023-03-24T18:45:05.657Z,6.61
2023-03-24T18:47:33.635Z,6.66
2023-03-24T18:50:02.931Z,6.72
2023-03-24T18:52:30.850Z,6.73
2023-03-24T18:54:59.576Z,6.71
2023-03-24T18:57:27.412Z,6.71
2023-03-24T18:59:55.286Z,6.76
2023-03-24T19:02:23.048Z,6.79
2023-03-24T19:04:50.862Z,6.75
2023-03-24T19:07:26.359Z,6.78
2023-03-24T19:09:54.366Z,6.81
2023-03-24T19:12:22.154Z,6.80
2023-03-24T19:14:50.728Z,6.78
2023-03-24T19:17:18.480Z,6.78
2023-03-24T19:19:46.310Z,6.82
2023-03-24T19:22:16.341Z,6.81
2023-03-24T19:24:45.591Z,6.78
2023-03-24T19:27:13.635Z,6.77
2023-03-24T19:29:41.691Z,6.73
2023-03-24T19:32:09.444Z,6.72
2023-03-24T19:34:37.168Z,6.72
2023-03-24T19:37:05.596Z,6.65
2023-03-24T19:39:34.429Z,6.67
2023-03-24T19:42:07.677Z,6.61
2023-03-24T19:44:35.849Z,6.62
2023-03-24T19:47:03.802Z,6.63
2023-03-24T19:49:32.291Z,6.56
2023-03-24T19:52:01.525Z,6.52
2023-03-24T19:54:29.222Z,6.50
2023-03-24T19:56:57.078Z,6.48
2023-03-24T19:59:26.404Z,6.47
2023-03-24T20:01:54.224Z,6.43
2023-03-24T20:04:22.168Z,6.40
2023-03-24T20:06:49.890Z,6.37
2023-03-24T20:09:17.822Z,6.38
2023-03-24T20:11:45.707Z,6.38
2023-03-24T20:14:13.541Z,6.35
2023-03-24T20:16:42.781Z,6.32
2023-03-24T20:19:10.577Z,6.27
2023-03-24T20:21:38.460Z,6.23
2023-03-24T20:24:06.569Z,6.23
2023-03-24T20:26:34.466Z,6.19
2023-03-24T20:29:02.622Z,6.10
2023-03-24T20:31:30.568Z,6.17
2023-03-24T20:33:59.785Z,6.18
2023-03-24T20:36:27.582Z,6.18
2023-03-24T20:38:59.348Z,6.13
2023-03-24T20:41:27.517Z,6.01
2023-03-24T20:43:55.476Z,6.13
2023-03-24T20:46:23.517Z,6.08
2023-03-24T20:48:51.503Z,6.05
2023-03-24T20:51:20.725Z,5.98
2023-03-24T20:53:49.891Z,5.95
2023-03-24T20:56:18.936Z,5.84
2023-03-24T20:58:47.026Z,5.77
2023-03-24T21:01:20.512Z,5.76
2023-03-24T21:03:48.804Z,5.74
2023-03-24T21:06:17.388Z,5.71
2023-03-24T21:08:46.528Z,5.71
2023-03-24T21:11:14.762Z,5.70
2023-03-24T21:13:42.493Z,5.63
2023-03-24T21:16:12.678Z,5.64
2023-03-24T21:18:42.660Z,5.58
2023-03-24T21:21:12.336Z,5.46
2023-03-24T21:23:41.488Z,5.46
2023-03-24T21:26:13.468Z,5.49
2023-03-24T21:28:43.300Z,5.44
2023-03-24T21:31:12.809Z,5.34
2023-03-24T21:33:43.327Z,5.26
2023-03-24T21:36:11.917Z,5.17
2023-03-24T21:38:40.072Z,5.07
2023-03-24T21:41:08.667Z,4.96
2023-03-24T21:43:40.507Z,4.89
2023-03-24T21:46:14.968Z,4.80
2023-03-24T21:48:50.092Z,4.79
2023-03-24T21:51:20.288Z,4.72
2023-03-24T21:53:48.780Z,4.69
2023-03-24T21:56:16.588Z,4.57
2023-03-24T21:58:46.383Z,4.53
2023-03-24T22:01:14.689Z,4.40
2023-03-24T22:03:42.526Z,4.48
2023-03-24T22:06:11.478Z,4.47
2023-03-24T22:08:43.529Z,4.38
2023-03-24T22:11:15.379Z,4.41
2023-03-24T22:13:43.394Z,4.38
2023-03-24T22:16:12.652Z,4.32
2023-03-24T22:18:40.472Z,4.23
2023-03-24T22:21:10.571Z,4.16
2023-03-24T22:23:40.548Z,4.06
2023-03-24T22:26:11.725Z,3.97
2023-03-24T22:28:39.931Z,3.86
2023-03-24T22:31:10.483Z,3.77
2023-03-24T22:33:39.973Z,3.69
2023-03-24T22:36:08.980Z,3.66
2023-03-24T22:38:37.003Z,3.64
2023-03-24T22:41:07.176Z,3.65
2023-03-24T22:43:36.346Z,3.62
2023-03-24T22:46:04.755Z,3.64
2023-03-24T22:48:32.606Z,3.65
2023-03-24T22:51:02.268Z,3.67
2023-03-24T22:53:31.163Z,3.53
2023-03-24T22:55:59.012Z,3.59
2023-03-24T22:58:27.023Z,3.67
2023-03-24T23:00:56.800Z,3.64
2023-03-24T23:03:24.770Z,3.65
2023-03-24T23:05:52.819Z,3.58
2023-03-24T23:08:22.182Z,3.61
2023-03-24T23:10:50.268Z,3.54
2023-03-24T23:13:18.032Z,3.46
2023-03-24T23:15:48.465Z,3.32
2023-03-24T23:18:16.811Z,3.20
2023-03-24T23:20:44.761Z,3.15
2023-03-24T23:23:13.419Z,3.07
2023-03-24T23:25:44.077Z,3.04
2023-03-24T23:28:12.746Z,2.94
2023-03-24T23:30:41.234Z,2.91
2023-03-24T23:33:14.653Z,2.83
2023-03-24T23:35:42.707Z,2.79
2023-03-24T23:38:10.549Z,2.74
2023-03-24T23:40:38.430Z,2.71
2023-03-24T23:43:07.512Z,2.73
2023-03-24T23:45:35.382Z,2.61
2023-03-24T23:48:03.425Z,2.51
2023-03-24T23:50:31.188Z,2.40
2023-03-24T23:52:59.236Z,2.23
2023-03-24T23:55:28.090Z,2.20
2023-03-24T23:57:56.529Z,1.98
